Date,TemperatureHighF,TemperatureAvgF,TemperatureLowF,DewpointHighF,DewpointAvgF,DewpointLowF,HumidityHigh,HumidityAvg,HumidityLow,PressureMaxIn,PressureMinIn,WindSpeedMaxMPH,WindSpeedAvgMPH,GustSpeedMaxMPH,PrecipitationSumIn
2013-2-1,7.9,0.1,-9.0,0.5,-13.3,-21.8,71,53,39,30.49,29.91,21,8,21,0.00
2013-2-2,17.6,12.2,8.1,12.0,2.5,-2.2,79,65,47,30.02,29.81,20,6,20,0.00
2013-2-3,23.4,16.1,9.5,11.3,6.0,1.4,78,64,46,29.96,29.77,23,7,23,0.00
2013-2-4,22.8,17.8,11.7,16.2,8.9,3.0,85,68,52,29.89,29.69,19,8,19,0.00
2013-2-5,30.7,22.1,10.4,23.7,14.6,1.9,82,73,63,29.96,29.63,23,9,23,0.00
2013-2-6,36.3,28.1,16.9,29.5,19.9,10.4,79,71,57,30.06,29.89,22,9,22,0.00
2013-2-7,35.8,33.0,26.6,33.1,30.0,23.2,95,89,75,29.97,29.79,17,6,21,0.26
2013-2-8,31.1,24.3,17.1,23.4,16.5,10.6,88,72,55,30.29,29.97,0,0,0,0.00
2013-2-9,30.6,25.1,17.1,24.8,19.8,10.9,87,80,71,30.21,29.88,30,8,30,0.01
2013-2-10,44.2,36.4,27.1,43.7,33.9,23.2,99,91,70,29.88,29.26,41,17,41,0.63
2013-2-11,35.1,28.3,22.3,29.1,19.8,12.9,85,70,62,29.91,29.34,45,20,46,1.22
2013-2-12,35.8,26.8,20.8,22.5,17.4,13.1,78,68,52,29.96,29.72,19,8,19,0.00
2013-2-13,41.2,33.5,26.1,28.9,25.2,19.8,82,72,59,29.72,29.54,14,5,15,0.00
2013-2-14,38.7,34.3,27.7,29.5,24.8,16.7,79,68,50,29.89,29.48,30,13,30,0.04
2013-2-15,29.1,21.0,12.9,16.5,4.2,-1.3,63,48,32,30.12,29.89,25,12,25,0.00
2013-2-16,21.0,14.4,8.6,3.2,-0.3,-3.3,65,52,41,30.08,29.99,19,7,21,0.00
2013-2-17,31.8,21.7,9.5,19.2,7.4,-5.6,66,54,45,30.03,29.72,27,12,27,0.00
2013-2-18,51.4,33.3,15.4,37.2,24.8,6.6,95,71,54,29.72,29.41,33,16,34,0.04
2013-2-19,15.6,9.4,3.2,6.6,-2.6,-9.4,72,58,47,30.38,29.54,30,16,30,0.04
2013-2-25,41.5,36.1,32.4,26.6,24.2,21.6,68,62,53,30.03,29.82,16,8,16,0.00
2013-2-26,34.7,31.3,28.0,28.0,24.3,21.2,94,76,59,29.83,29.50,31,16,31,0.01
2013-2-27,32.5,29.9,27.5,29.5,27.1,23.5,94,89,84,29.69,29.51,21,12,21,0.00
2013-2-28,35.6,31.4,28.0,28.9,24.4,19.8,92,75,63,29.99,29.69,22,10,22,0.01